Forecasts are only available for sites displaying the forecast symbol.

Some water levels are actually in metres AHD (Australian Height Datum), click individual sites for more details.

Scroll for more >

River gauges, storages, and weirs in the Murray–Darling Basin

Type Locationsort descending River Water level Flow Volume Release Water temp Salinity Rainfall
River Gauge Albury (Union Bridge) Murray 0.79 m 14/08/2020 4:15 Not measured Not measured Not measured 9.5°C 14/08/2020 4:15 58.0 μS/cm 14/08/2020 4:15 Not measured Full data
River Gauge Balranald Murrumbidgee 1.7 m 14/08/2020 3:45 1275 ML/Day 14/08/2020 3:45 Not measured Not measured 10.8°C 14/08/2020 3:45 246.8 μS/cm 14/08/2020 3:45 Not measured Full data
River Gauge Bandiana Kiewa 1.68 m 14/08/2020 3:45 1453 ML/Day 14/08/2020 3:45 Not measured Not measured 4.5°C 14/08/2020 3:45 45.2 μS/cm 14/08/2020 3:30 Not measured Full data
River Gauge Barmah Choke Murray 1.67 m 14/08/2020 3:45 3808 ML/Day 14/08/2020 3:45 Not measured Not measured Not measured Not measured Not measured Full data
River Gauge Biggara Murray 0.84 m 14/08/2020 4:15 1653 ML/Day 14/08/2020 4:15 Not measured Not measured 6.3°C 14/08/2020 4:15 37.2 μS/cm 14/08/2020 4:15 0.00 mm 12/08/2020 9:00 Full data
River Gauge Bringenbrong Bridge Murray 1.61 m 14/08/2020 4:15 4411 ML/Day 14/08/2020 4:15 Not measured Not measured Not measured Not measured Not measured Full data
River Gauge Burtundy Darling 0.72 m 14/08/2020 4:15 133 ML/Day 14/08/2020 4:15 Not measured Not measured 11.8°C 14/08/2020 4:15 338.9 μS/cm 14/08/2020 4:15 Not measured Full data
River Gauge Colemans Mitta 0.91 m 14/08/2020 4:15 212 ML/Day 14/08/2020 4:15 Not measured Not measured 9.4°C 14/08/2020 3:45 46.7 μS/cm 14/08/2020 3:45 Not measured Full data
River Gauge Colignan Murray 2.08 m 14/08/2020 3:45 7824 ML/Day 14/08/2020 3:45 Not measured Not measured 11.7°C 14/08/2020 3:45 107.0 μS/cm 14/08/2020 3:45 Not measured Full data
River Gauge Corowa Murray 0.7 m 14/08/2020 4:15 1999 ML/Day 14/08/2020 4:15 Not measured Not measured 11.2°C 14/08/2020 4:15 82.0 μS/cm 14/08/2020 4:15 Not measured Full data
Storage Dartmouth Dam Mitta 453.62 m 14/08/2020 4:15 Not measured 2074 GL 14/08/2020 4:15 Not measured Not measured Not measured Not measured Full data
River Gauge Doctors Point Murray 1.63 m 14/08/2020 4:15 1904 ML/Day 14/08/2020 4:15 Not measured Not measured 10.1°C 14/08/2020 4:15 69.8 μS/cm 14/08/2020 4:15 Not measured Full data
River Gauge Echuca Wharf Murray 86.66 m 13/08/2020 7:45 Not measured Not measured Not measured Not measured Not measured Not measured Full data
River Gauge Edward Escape Wakool 0.14 m 14/08/2020 3:45 37 ML/Day 14/08/2020 3:45 Not measured Not measured 12.2°C 14/08/2020 3:45 68.6 μS/cm 14/08/2020 3:45 Not measured Full data
River Gauge Edward River Offtake Murray 1.93 m 14/08/2020 4:00 945 ML/Day 14/08/2020 4:00 Not measured Not measured 11.3°C 14/08/2020 3:45 56.3 μS/cm 14/08/2020 3:45 Not measured Full data
Weirs Euston Weir Downstream Murray 43.21 m 14/08/2020 3:45 7217 ML/Day 14/08/2020 3:45 Not measured Not measured 10.5°C 14/08/2020 3:45 117.4 μS/cm 14/08/2020 3:45 Not measured Full data
Weirs Euston Weir Upstream Murray 47.51 m 13/08/2020 8:45 Not measured 36 GL 13/08/2020 7:45 Not measured Not measured Not measured 145.9 mm 5/03/2020 9:00 Full data
River Gauge Flow to South Australia Murray Not measured Not measured Not measured 11809.1 ML/d13/08/2020 7:45 Not measured Not measured Not measured Full data
River Gauge Frenchman Creek Murray 27.44 m 13/08/2020 7:45 Not measured Not measured 4717.2 ML/d13/08/2020 7:45 Not measured Not measured Not measured Full data
River Gauge Gulpa Creek Offtake Murray 2.39 m 14/08/2020 3:45 245 ML/Day 14/08/2020 3:45 Not measured Not measured Not measured Not measured Not measured Full data
River Gauge Hinnomunjie Mitta 1.11 m 14/08/2020 3:45 1729 ML/Day 14/08/2020 3:45 Not measured Not measured 7.3°C 14/08/2020 3:45 33.0 μS/cm 14/08/2020 3:45 1.0 mm 13/08/2020 9:00 Full data
Storage Hume Dam Murray 183.76 m 14/08/2020 4:15 Not measured 1608 GL 14/08/2020 4:15 600.0 ML/d13/08/2020 8:00 Not measured Not measured 2.0 mm 12/08/2020 9:00 Full data
River Gauge Jingellic Murray 1.89 m 14/08/2020 3:45 6206 ML/Day 14/08/2020 3:45 Not measured Not measured 8.8°C 14/08/2020 3:45 37.1 μS/cm 14/08/2020 3:45 1.8 mm 13/08/2020 9:00 Full data
River Gauge Kerang Loddon 0.42 m 14/08/2020 3:45 256 ML/Day 14/08/2020 3:45 Not measured Not measured 11.3°C 14/08/2020 3:45 215.5 μS/cm 14/08/2020 3:45 Not measured Full data
River Gauge Lake Albert Murray 0.81 m 13/08/2020 5:45 Not measured 282 GL 13/08/2020 5:45 Not measured Not measured Not measured Not measured Full data
River Gauge Lake Alexandrina Murray 0.79 m 13/08/2020 5:45 Not measured 1640 GL 13/08/2020 5:45 Not measured Not measured 921.0 μS/cm 14/08/2020 2:45 Not measured Full data
Storage Lake Victoria Murray 26.92 m 14/08/2020 3:45 Not measured 667 GL 14/08/2020 3:45 Not measured 10.8°C 14/08/2020 3:45 112.5 μS/cm 14/08/2020 3:45 Not measured Full data
Weirs Lock 1 Downstream Murray 0.87 m 14/08/2020 3:45 Not measured Not measured 8861.9 ML/d13/08/2020 7:45 Not measured Not measured Not measured Full data
Weirs Lock 1 Upstream Murray 3.34 m 14/08/2020 3:45 Not measured Not measured Not measured 12.0°C 14/08/2020 3:45 194.0 μS/cm 14/08/2020 3:45 Not measured Full data
Weirs Lock 2 Downstream Murray 3.69 m 14/08/2020 3:45 Not measured Not measured Not measured Not measured Not measured Not measured Full data
Weirs Lock 2 Upstream Murray 6.25 m 14/08/2020 3:45 Not measured Not measured Not measured 12.2°C 14/08/2020 3:45 201.7 μS/cm 14/08/2020 3:45 Not measured Full data
Weirs Lock 3 Downstream Murray 6.63 m 14/08/2020 3:45 Not measured Not measured Not measured Not measured Not measured Not measured Full data
Weirs Lock 3 Upstream Murray 9.8 m 14/08/2020 3:45 Not measured Not measured Not measured Not measured Not measured Not measured Full data
Weirs Lock 4 Downstream Murray 10.79 m 14/08/2020 3:45 Not measured Not measured Not measured Not measured Not measured Not measured Full data
Weirs Lock 4 Upstream Murray 13.46 m 14/08/2020 3:45 Not measured Not measured Not measured Not measured Not measured Not measured Full data
Weirs Lock 5 Downstream Murray 13.73 m 14/08/2020 3:45 Not measured Not measured Not measured Not measured Not measured Not measured Full data
Weirs Lock 5 Upstream Murray 16.47 m 14/08/2020 3:45 Not measured Not measured Not measured 11.9°C 14/08/2020 3:45 153.7 μS/cm 14/08/2020 3:45 Not measured Full data
Weirs Lock 6 Downstream Murray 16.76 m 14/08/2020 3:45 Not measured Not measured Not measured Not measured Not measured Not measured Full data
Weirs Lock 6 Upstream Murray 19.44 m 14/08/2020 3:45 Not measured Not measured Not measured 11.5°C 14/08/2020 3:45 152.1 μS/cm 14/08/2020 3:45 Not measured Full data
Weirs Lock 7 Downstream Murray 21.15 m 14/08/2020 2:45 Not measured Not measured Not measured Not measured Not measured Not measured Full data
Weirs Lock 7 Upstream Murray 22.13 m 14/08/2020 2:45 Not measured Not measured Not measured 11.9°C 14/08/2020 2:45 121.2 μS/cm 14/08/2020 2:45 Not measured Full data
Weirs Lock 8 Upstream Murray 24.54 m 14/08/2020 3:45 Not measured Not measured Not measured 11.4°C 14/08/2020 3:45 123.7 μS/cm 14/08/2020 3:45 Not measured Full data
Weirs Lock 9 Downstream Murray 24.63 m 14/08/2020 3:45 Not measured Not measured Not measured Not measured Not measured Not measured Full data
Weirs Lock 9 Upstream Murray 27.47 m 14/08/2020 3:45 Not measured Not measured Not measured 11.6°C 14/08/2020 3:45 122.3 μS/cm 14/08/2020 3:45 Not measured Full data
River Gauge McCoy Bridge Goulburn 2.84 m 14/08/2020 3:45 3528 ML/Day 14/08/2020 3:45 Not measured Not measured 10.6°C 14/08/2020 3:45 105.0 μS/cm 14/08/2020 3:45 Not measured Full data
Storage Menindee Lakes Darling Not measured Not measured 459 GL 13/08/2020 7:45 Not measured Not measured Not measured Not measured Full data
Weirs Mildura Weir downstream Murray 31.05 m 14/08/2020 3:45 Not measured Not measured Not measured 11.1°C 14/08/2020 3:45 124.2 μS/cm 14/08/2020 3:45 Not measured Full data
River Gauge Morgan Downstream Murray Not measured Not measured Not measured 6169.7 ML/d14/08/2020 3:45 Not measured 181.0 μS/cm 14/08/2020 0:45 Not measured Full data
River Gauge Mulwala Canal Murray Not measured Not measured Not measured 0.00 ML/d13/08/2020 8:45 Not measured Not measured Not measured Full data
River Gauge Mundoo Barrage Murray 0.78 m 13/08/2020 7:45 Not measured Not measured Not measured Not measured Not measured Not measured Full data
River Gauge Murray Bridge Murray 0.75 m 14/08/2020 3:45 Not measured Not measured Not measured 11.6°C 14/08/2020 3:45 227.7 μS/cm 14/08/2020 3:45 Not measured Full data
River Gauge Peechelba Ovens 127.67 m 14/08/2020 3:45 2594 ML/Day 14/08/2020 3:45 Not measured Not measured 9.6°C 14/08/2020 3:45 55.1 μS/cm 14/08/2020 3:45 Not measured Full data
River Gauge Pinegrove Murray 1.31 m 14/08/2020 4:15 530 ML/Day 14/08/2020 4:15 Not measured Not measured 10.0°C 14/08/2020 4:15 95.6 μS/cm 14/08/2020 4:15 0.2 mm 12/08/2020 9:00 Full data
River Gauge Redcliffs Murray Not measured Not measured Not measured Not measured Not measured 127.4 μS/cm 13/08/2020 7:45 Not measured Full data
River Gauge Rochester Campaspe 1.92 m 14/08/2020 3:45 217 ML/Day 14/08/2020 3:45 Not measured Not measured 10.2°C 14/08/2020 3:45 586.6 μS/cm 14/08/2020 3:45 0.00 mm 12/08/2020 9:00 Full data
River Gauge Rufus River Murray 21.68 m 13/08/2020 7:45 Not measured Not measured 5849.8 ML/d13/08/2020 7:45 Not measured 129.0 μS/cm 14/08/2020 0:45 Not measured Full data
Weirs Steven's Weir Downstream Edward 0.98 m 14/08/2020 3:45 684 ML/Day 14/08/2020 3:45 Not measured Not measured 10.7°C 14/08/2020 3:45 73.6 μS/cm 14/08/2020 3:45 Not measured Full data
Weirs Steven's Weir Upstream Edward 4.14 m 14/08/2020 4:00 Not measured Not measured Not measured Not measured Not measured Not measured Full data
River Gauge Stoney Crossing Murray 1.47 m 14/08/2020 3:45 594 ML/Day 14/08/2020 3:45 Not measured 606.6 ML/d13/08/2020 7:45 11.2°C 14/08/2020 3:45 203.9 μS/cm 14/08/2020 3:45 Not measured Full data
River Gauge Swan Hill Murray 0.96 m 14/08/2020 3:45 4300 ML/Day 14/08/2020 3:45 Not measured Not measured 11.0°C 14/08/2020 3:45 121.2 μS/cm 14/08/2020 3:45 Not measured Full data
River Gauge Tallandoon Mitta 1.56 m 14/08/2020 3:45 876 ML/Day 14/08/2020 3:45 Not measured Not measured 10.1°C 14/08/2020 3:45 34.1 μS/cm 14/08/2020 3:45 Not measured Full data
River Gauge Tauwitchere Barrage Murray 0.83 m 14/08/2020 3:45 Not measured Not measured Not measured Not measured Not measured Not measured Full data
River Gauge Tocumwal Murray 1.49 m 14/08/2020 3:45 5143 ML/Day 14/08/2020 3:45 Not measured Not measured 11.3°C 14/08/2020 3:45 65.3 μS/cm 14/08/2020 3:45 Not measured Full data
River Gauge Torrumbarry Headworks Murray 84.4 m 14/08/2020 3:15 Not measured Not measured 778.7 ML/d14/08/2020 3:15 Not measured Not measured Not measured Full data
Weirs Torrumbarry Weir Downstream Murray 1.98 m 14/08/2020 3:45 5469 ML/Day 14/08/2020 3:45 Not measured Not measured 10.6°C 14/08/2020 3:45 94.4 μS/cm 14/08/2020 3:45 Not measured Full data
Weirs Torrumbarry Weir Upstream Murray 86.05 m 14/08/2020 3:45 Not measured 37 GL 13/08/2020 8:45 Not measured 10.4°C 13/08/2020 8:45 94.6 μS/cm 14/08/2020 2:45 0.00 mm 10/08/2020 9:00 Full data
River Gauge Wakool Canal Wakool 0.48 m 14/08/2020 3:45 Not measured Not measured 0.00 ML/d13/08/2020 8:45 Not measured Not measured Not measured Full data
River Gauge Wakool Junction Murray 2.51 m 14/08/2020 3:45 5957 ML/Day 14/08/2020 3:45 Not measured Not measured 11.2°C 14/08/2020 3:45 116.5 μS/cm 14/08/2020 3:45 Not measured Full data
River Gauge Weir 32 Upstream Darling 1.32 m 14/08/2020 3:45 189 ML/Day 14/08/2020 3:45 Not measured Not measured 11.2°C 14/08/2020 3:45 323.2 μS/cm 14/08/2020 3:45 Not measured Full data
Weirs Wentworth Weir Murray 27.84 m 14/08/2020 3:45 Not measured Not measured 8950.6 ML/d13/08/2020 8:45 Not measured 128.0 μS/cm 13/08/2020 7:45 Not measured Full data
River Gauge Wilcania Darling 0.14 m 14/08/2020 3:45 17 ML/Day 14/08/2020 3:45 Not measured Not measured 10.7°C 14/08/2020 3:45 229.0 μS/cm 14/08/2020 3:45 Not measured Full data
River Gauge Yarrawonga Main Channel Murray 123.03 m 14/08/2020 3:45 Not measured Not measured 207.9 ML/d14/08/2020 3:45 Not measured Not measured Not measured Full data
Weirs Yarrawonga Weir Downstream Murray 1.02 m 14/08/2020 4:00 5869 ML/Day 14/08/2020 4:00 Not measured Not measured 10.8°C 14/08/2020 4:00 57.3 μS/cm 14/08/2020 4:00 Not measured Full data
Weirs Yarrawonga Weir Upstream Murray 124.77 m 14/08/2020 3:45 Not measured Not measured Not measured Not measured Not measured 0.4 mm 12/08/2020 9:00 Full data